Time;durP1;ratioP1;P1;durP2;ratioP2;P2;SDS_P1;SDS_P2;PMS_P1;PMS_P2;Temp;Humidity;BMP_temperature;BMP_pressure;BME280_temperature;BME280_humidity;BME280_pressure;Samples;Min_cycle;Max_cycle;Signal;HPM_P1;HPM_P2
2022/03/17 00:00:46;;;;;;;;;10.00;10.00;;;;;11.34;65.77;101894.56;5074027;28;45421;-74
2022/03/17 00:03:11;;;;;;;;;14.50;13.00;;;;;11.39;65.69;101917.72;5074845;28;46000;-74
2022/03/17 00:05:38;;;;;;;;;11.00;11.00;;;;;11.56;65.98;101949.25;5071720;27;45291;-74
2022/03/17 00:08:03;;;;;;;;;14.50;12.75;;;;;11.53;65.82;101959.72;5080093;28;45460;-73
2022/03/17 00:10:29;;;;;;;;;15.25;14.00;;;;;11.52;66.12;101969.44;5071708;28;45264;-74
2022/03/17 00:12:55;;;;;;;;;14.00;12.50;;;;;11.42;66.18;101954.00;5074841;28;45609;-74
2022/03/17 00:15:20;;;;;;;;;17.00;15.25;;;;;11.46;66.38;101969.19;5071424;27;45303;-74
2022/03/17 00:17:46;;;;;;;;;16.50;16.00;;;;;11.36;66.50;101965.25;5079043;27;45235;-74
2022/03/17 00:20:13;;;;;;;;;18.50;17.00;;;;;11.23;66.32;101954.13;5069468;28;45351;-74
2022/03/17 00:22:40;;;;;;;;;16.50;15.75;;;;;11.28;66.68;101968.44;5074527;28;45571;-74
2022/03/17 00:25:06;;;;;;;;;17.75;16.25;;;;;11.38;66.99;101986.50;5079168;28;47633;-74
2022/03/17 00:27:33;;;;;;;;;14.00;13.50;;;;;11.37;66.33;101985.63;5078686;27;45453;-74
2022/03/17 00:29:59;;;;;;;;;20.25;20.25;;;;;11.30;67.11;101983.56;5073642;28;45398;-74
2022/03/17 00:32:25;;;;;;;;;18.25;18.25;;;;;11.26;67.32;101984.28;5074655;28;45292;-74
2022/03/17 00:37:34;;;;;;;;;24.75;22.50;;;;;11.24;66.95;101998.28;5078588;28;45295;-74
2022/03/17 00:40:00;;;;;;;;;24.25;22.25;;;;;11.24;67.06;102001.84;5074622;27;45240;-74
2022/03/17 00:42:27;;;;;;;;;25.25;23.25;;;;;11.09;67.76;101993.25;5077066;28;45345;-74
2022/03/17 00:44:54;;;;;;;;;30.00;24.75;;;;;11.00;67.72;101980.53;5090945;27;47370;-74
2022/03/17 00:47:20;;;;;;;;;26.00;22.75;;;;;11.21;67.97;102025.53;5077695;28;45336;-75
2022/03/17 00:49:46;;;;;;;;;28.00;23.50;;;;;10.75;67.75;101949.53;5078341;28;45417;-75
2022/03/17 00:52:11;;;;;;;;;24.25;22.50;;;;;11.04;67.42;102013.34;5079502;28;45295;-75
2022/03/17 00:54:39;;;;;;;;;23.75;22.00;;;;;11.10;67.59;102009.22;5068057;28;45551;-74
2022/03/17 00:57:05;;;;;;;;;22.75;19.75;;;;;11.18;68.30;102036.00;5086089;27;45650;-74
2022/03/17 00:59:30;;;;;;;;;22.75;21.50;;;;;11.18;68.51;102046.59;5070194;27;45346;-75
2022/03/17 01:01:55;;;;;;;;;24.50;22.00;;;;;11.12;67.31;102047.22;5078363;28;46138;-74
2022/03/17 01:04:21;;;;;;;;;27.00;23.50;;;;;11.15;68.35;102060.59;5069463;27;45399;-74
2022/03/17 01:06:46;;;;;;;;;27.75;21.50;;;;;11.09;67.76;102040.88;5078807;28;45179;-74
2022/03/17 01:09:11;;;;;;;;;24.50;23.00;;;;;11.07;68.32;102038.19;5076344;28;45304;-74
2022/03/17 01:11:37;;;;;;;;;26.00;24.25;;;;;11.10;68.27;102045.34;5079640;27;45463;-74
2022/03/17 01:14:02;;;;;;;;;22.00;22.00;;;;;10.94;68.25;102041.16;5074806;27;46050;-74
2022/03/17 01:16:28;;;;;;;;;24.25;24.00;;;;;11.02;68.32;102082.06;5078079;28;45394;-74
2022/03/17 01:18:53;;;;;;;;;24.50;24.50;;;;;10.82;68.42;102022.13;5074469;27;45946;-75
2022/03/17 01:21:18;;;;;;;;;27.25;23.25;;;;;10.88;68.58;102044.44;5077985;28;46219;-74
2022/03/17 01:23:44;;;;;;;;;27.00;25.00;;;;;11.01;68.19;102060.81;5082466;27;47111;-74
2022/03/17 01:26:09;;;;;;;;;26.75;23.00;;;;;10.95;69.01;102049.16;5069158;27;45356;-74
2022/03/17 01:28:34;;;;;;;;;27.75;25.75;;;;;10.91;68.44;102041.91;5083071;27;45295;-74
2022/03/17 01:30:59;;;;;;;;;28.25;24.50;;;;;10.75;68.57;102023.56;5077931;28;45555;-74
2022/03/17 01:33:25;;;;;;;;;19.25;18.25;;;;;10.81;68.43;102028.22;5078552;27;46104;-74
2022/03/17 01:35:50;;;;;;;;;23.25;21.75;;;;;10.81;68.37;102044.09;5071690;27;45249;-74
2022/03/17 01:38:16;;;;;;;;;27.25;21.75;;;;;10.92;68.73;102074.56;5079310;28;45452;-74
2022/03/17 01:40:41;;;;;;;;;26.50;24.75;;;;;10.84;68.42;102058.38;5073468;28;45204;-74
2022/03/17 01:43:06;;;;;;;;;23.25;21.75;;;;;10.75;69.13;102045.66;5079453;28;46207;-74
2022/03/17 01:45:32;;;;;;;;;25.25;24.50;;;;;10.82;67.87;102057.41;5073648;28;45443;-74
2022/03/17 01:47:57;;;;;;;;;28.00;22.75;;;;;10.57;69.37;102020.16;5077320;28;45375;-74
2022/03/17 01:50:23;;;;;;;;;24.50;23.75;;;;;10.82;69.08;102059.16;5078161;28;45348;-74
2022/03/17 01:52:48;;;;;;;;;24.75;21.75;;;;;10.78;69.73;102055.44;5072654;28;45529;-74
2022/03/17 01:55:17;;;;;;;;;24.50;20.00;;;;;10.93;69.78;102098.44;5069175;28;45275;-74
2022/03/17 01:57:42;;;;;;;;;23.75;20.25;;;;;10.93;69.35;102095.81;5078636;27;45230;-73
2022/03/17 02:00:14;;;;;;;;;28.75;25.25;;;;;10.87;68.61;102082.31;5066118;28;45270;-74
2022/03/17 02:02:41;;;;;;;;;22.25;20.50;;;;;10.89;68.44;102100.88;5078550;28;45547;-74
2022/03/17 02:05:07;;;;;;;;;29.25;27.50;;;;;10.88;68.74;102099.97;5069694;27;45398;-74
2022/03/17 02:07:32;;;;;;;;;22.00;20.50;;;;;10.93;68.74;102101.09;5078343;28;45376;-74
2022/03/17 02:09:59;;;;;;;;;25.00;23.50;;;;;10.93;69.46;102116.06;5069942;27;45472;-74
2022/03/17 02:15:09;;;;;;;;;22.00;21.25;;;;;10.77;68.42;102095.06;5069724;28;45237;-74
2022/03/17 02:17:43;;;;;;;;;24.50;21.50;;;;;10.85;69.23;102120.13;5078200;27;45477;-74
2022/03/17 02:20:12;;;;;;;;;26.00;23.00;;;;;10.70;68.62;102096.53;5064309;28;46109;-73
2022/03/17 02:22:45;;;;;;;;;21.50;19.75;;;;;10.84;69.56;102129.78;5076618;28;46843;-74
2022/03/17 02:27:54;;;;;;;;;27.00;22.75;;;;;10.85;69.12;102149.22;5073697;28;45211;-73
2022/03/17 02:30:23;;;;;;;;;26.00;22.25;;;;;10.77;69.46;102138.28;5069936;27;45485;-74
2022/03/17 02:32:50;;;;;;;;;24.25;22.00;;;;;10.75;68.78;102140.88;5075068;28;46313;-74
2022/03/17 02:35:22;;;;;;;;;26.00;22.25;;;;;10.80;69.16;102156.94;5070686;27;45217;-74
2022/03/17 02:37:48;;;;;;;;;25.00;23.00;;;;;10.56;69.13;102102.91;5077088;28;45540;-74
2022/03/17 02:40:13;;;;;;;;;26.25;22.00;;;;;10.78;69.29;102155.94;5071051;28;45285;-74
2022/03/17 02:42:39;;;;;;;;;24.25;20.75;;;;;10.70;68.92;102147.69;5077109;28;45292;-74
2022/03/17 02:45:07;;;;;;;;;23.25;19.75;;;;;10.75;68.42;102158.44;5070284;28;45805;-73
2022/03/17 02:47:33;;;;;;;;;22.00;21.00;;;;;10.73;68.73;102161.03;5077496;28;45801;-74
2022/03/17 02:49:59;;;;;;;;;20.25;16.25;;;;;10.68;69.18;102159.94;5079640;27;46354;-73
2022/03/17 02:52:25;;;;;;;;;23.25;20.25;;;;;10.70;68.90;102171.50;5079239;27;45474;-73
2022/03/17 02:54:53;;;;;;;;;20.50;19.25;;;;;10.49;68.74;102137.00;5079423;28;45341;-73
2022/03/17 02:57:19;;;;;;;;;24.25;22.50;;;;;10.51;69.19;102148.56;5079070;27;45304;-74
2022/03/17 02:59:46;;;;;;;;;25.75;23.75;;;;;10.67;69.56;102179.28;5068219;28;45388;-73
2022/03/17 03:02:14;;;;;;;;;20.00;18.50;;;;;10.43;69.17;102136.75;5076853;28;46554;-73
2022/03/17 03:04:40;;;;;;;;;22.50;20.75;;;;;10.43;69.76;102135.84;5068505;28;45531;-74
2022/03/17 03:07:06;;;;;;;;;23.50;21.00;;;;;10.64;69.05;102176.50;5080905;27;45296;-73
2022/03/17 03:09:32;;;;;;;;;24.50;22.00;;;;;10.64;68.76;102183.50;5071950;28;45315;-74
2022/03/17 03:11:57;;;;;;;;;27.00;23.75;;;;;10.62;70.12;102193.13;5081532;27;45304;-74
2022/03/17 03:14:23;;;;;;;;;21.50;20.00;;;;;10.41;68.80;102156.91;5075969;28;45501;-74
2022/03/17 03:16:49;;;;;;;;;26.25;17.75;;;;;10.58;68.98;102201.72;5081842;27;45241;-73
2022/03/17 03:19:15;;;;;;;;;17.00;16.75;;;;;10.25;68.14;102146.41;5075342;28;45233;-73
2022/03/17 03:21:40;;;;;;;;;17.25;16.50;;;;;10.11;69.08;102124.63;5081302;27;45331;-74
2022/03/17 03:24:06;;;;;;;;;25.50;20.00;;;;;10.30;69.03;102166.06;5080897;27;45277;-73
2022/03/17 03:26:31;;;;;;;;;22.00;19.00;;;;;10.47;68.55;102195.94;5069787;27;45438;-73
2022/03/17 03:28:57;;;;;;;;;16.25;14.00;;;;;10.46;68.85;102210.91;5078133;28;45430;-74
2022/03/17 03:31:22;;;;;;;;;22.00;19.00;;;;;10.43;68.23;102202.81;5070267;28;46143;-73
2022/03/17 03:33:49;;;;;;;;;21.00;19.00;;;;;10.24;68.64;102185.16;5079956;28;45435;-73
2022/03/17 03:38:58;;;;;;;;;17.75;16.25;;;;;10.05;68.34;102180.72;5080306;28;45254;-73
2022/03/17 03:41:24;;;;;;;;;16.75;15.50;;;;;10.17;68.70;102214.75;5073088;27;45330;-73
2022/03/17 03:43:49;;;;;;;;;20.25;18.25;;;;;10.25;68.27;102237.19;5080332;27;45406;-73
2022/03/17 03:46:14;;;;;;;;;25.25;19.00;;;;;10.15;67.88;102236.66;5074074;27;45535;-73
2022/03/17 03:48:41;;;;;;;;;22.75;18.75;;;;;10.15;67.48;102248.13;5078592;28;45527;-73
2022/03/17 03:51:06;;;;;;;;;17.00;14.00;;;;;10.13;67.60;102247.13;5076373;27;46217;-73
2022/03/17 03:56:16;;;;;;;;;21.75;19.00;;;;;9.95;67.61;102249.78;5076635;28;45315;-73
2022/03/17 03:58:42;;;;;;;;;13.25;13.25;;;;;10.02;67.82;102274.75;5076278;27;45519;-74
2022/03/17 04:01:07;;;;;;;;;11.75;11.75;;;;;9.95;67.05;102275.28;5075424;28;45302;-73
2022/03/17 04:03:33;;;;;;;;;12.75;10.75;;;;;9.64;66.74;102242.03;5079909;27;44725;-73
2022/03/17 04:05:59;;;;;;;;;11.50;9.50;;;;;9.85;66.40;102282.72;5081095;28;45366;-73
2022/03/17 04:08:24;;;;;;;;;12.50;9.00;;;;;9.58;66.71;102249.66;5078675;28;47275;-73
2022/03/17 04:10:49;;;;;;;;;11.75;11.75;;;;;9.61;66.88;102263.00;5080612;28;46399;-74
2022/03/17 04:13:15;;;;;;;;;11.75;10.00;;;;;9.64;66.63;102289.56;5077406;28;45430;-73
2022/03/17 04:15:40;;;;;;;;;9.50;9.00;;;;;9.67;66.31;102302.94;5070625;28;45246;-74
2022/03/17 04:18:06;;;;;;;;;12.00;11.25;;;;;9.26;66.60;102232.13;5073816;28;45930;-74
2022/03/17 04:20:31;;;;;;;;;9.75;9.00;;;;;9.44;66.69;102277.97;5072857;28;47240;-74
2022/03/17 04:22:56;;;;;;;;;14.25;9.00;;;;;9.06;67.01;102229.34;5074708;28;45316;-73
2022/03/17 04:25:22;;;;;;;;;6.25;6.25;;;;;9.57;66.85;102329.66;5072522;28;45216;-74
2022/03/17 04:27:47;;;;;;;;;11.75;11.25;;;;;9.33;67.01;102287.94;5075832;28;46365;-74
2022/03/17 04:30:13;;;;;;;;;11.25;11.00;;;;;9.44;66.75;102321.91;5073605;28;47004;-73
2022/03/17 04:32:38;;;;;;;;;24.25;17.00;;;;;9.30;66.87;102310.59;5079800;27;45323;-73
2022/03/17 04:35:04;;;;;;;;;16.25;14.00;;;;;9.45;67.05;102337.84;5074572;27;45302;-74
2022/03/17 04:37:30;;;;;;;;;15.75;14.50;;;;;9.06;66.86;102273.28;5077025;28;45301;-74
2022/03/17 04:39:55;;;;;;;;;21.25;18.00;;;;;9.41;66.67;102347.34;5075449;27;46263;-74
2022/03/17 04:42:21;;;;;;;;;38.50;31.00;;;;;9.25;67.22;102320.94;5076970;28;45385;-73
2022/03/17 04:44:47;;;;;;;;;19.75;17.25;;;;;9.40;67.64;102352.50;5075405;28;45421;-74
2022/03/17 04:47:12;;;;;;;;;21.50;18.00;;;;;9.33;66.94;102345.09;5077133;28;45315;-73
2022/03/17 04:49:37;;;;;;;;;27.75;25.00;;;;;9.25;67.24;102339.41;5079478;28;46274;-74
2022/03/17 04:53:26;;;;;;;;;23.75;19.00;;;;;9.23;67.00;102346.31;5080650;27;45323;-74
2022/03/17 04:54:48;;;;;;;;;64.25;48.75;;;;;9.26;67.51;102337.66;5070634;28;45417;-73
2022/03/17 04:57:14;;;;;;;;;38.75;34.00;;;;;9.40;67.47;102365.72;5079773;27;46154;-73
2022/03/17 04:59:39;;;;;;;;;25.50;20.00;;;;;8.94;66.76;102282.34;5075061;28;45456;-73
2022/03/17 05:02:04;;;;;;;;;23.25;21.50;;;;;9.33;66.69;102360.94;5080090;28;45236;-73
2022/03/17 05:04:32;;;;;;;;;21.50;21.25;;;;;9.25;66.49;102352.59;5070499;27;45236;-73
2022/03/17 05:06:57;;;;;;;;;16.25;15.50;;;;;9.35;67.31;102378.69;5080190;27;45175;-73
2022/03/17 05:09:23;;;;;;;;;50.75;40.25;;;;;9.37;67.31;102379.63;5075576;28;47406;-73
2022/03/17 05:11:49;;;;;;;;;39.00;32.50;;;;;9.35;66.52;102383.00;5079911;28;45299;-74
2022/03/17 05:14:15;;;;;;;;;15.75;13.00;;;;;9.34;66.93;102389.13;5074811;27;45410;-74
2022/03/17 05:16:40;;;;;;;;;12.50;10.00;;;;;9.14;66.43;102364.28;5066527;27;45302;-74
2022/03/17 05:19:06;;;;;;;;;9.50;9.50;;;;;9.16;66.81;102370.56;5067649;28;45330;-74
2022/03/17 05:21:32;;;;;;;;;31.75;28.00;;;;;9.17;66.70;102385.56;5078919;28;45288;-73
2022/03/17 05:23:57;;;;;;;;;21.00;17.25;;;;;9.12;67.55;102384.41;5077218;27;45338;-73
2022/03/17 05:26:23;;;;;;;;;22.25;20.50;;;;;9.05;67.32;102382.25;5068535;28;45262;-73
2022/03/17 05:28:48;;;;;;;;;8.00;6.25;;;;;9.04;67.40;102391.88;5078779;28;45290;-73
2022/03/17 05:31:13;;;;;;;;;10.50;10.50;;;;;9.20;67.00;102433.22;5077224;28;45685;-74
2022/03/17 05:33:39;;;;;;;;;21.25;16.75;;;;;9.12;67.02;102421.31;5078761;27;45378;-73
2022/03/17 05:36:05;;;;;;;;;11.00;9.75;;;;;9.15;67.34;102432.94;5071061;27;45282;-74
2022/03/17 05:38:30;;;;;;;;;11.00;9.00;;;;;9.05;66.79;102433.28;5078932;28;45268;-74
2022/03/17 05:40:56;;;;;;;;;14.75;14.75;;;;;9.00;67.33;102426.81;5070700;28;45316;-74
2022/03/17 05:43:22;;;;;;;;;31.50;24.25;;;;;8.92;67.28;102414.94;5070110;28;45161;-75
2022/03/17 05:45:47;;;;;;;;;12.25;12.00;;;;;8.83;67.21;102399.50;5072333;27;45498;-75
2022/03/17 05:48:12;;;;;;;;;15.25;12.00;;;;;8.84;67.10;102417.13;5074074;28;46036;-75
2022/03/17 05:50:41;;;;;;;;;10.00;9.75;;;;;8.94;67.04;102451.13;5079345;27;45228;-75
2022/03/17 05:53:08;;;;;;;;;12.50;11.00;;;;;8.83;67.24;102428.50;5076027;28;45437;-75
2022/03/17 05:55:34;;;;;;;;;18.75;18.75;;;;;8.80;67.06;102433.59;5069886;28;45449;-75
2022/03/17 05:58:00;;;;;;;;;11.50;9.75;;;;;8.98;67.14;102475.03;5078511;28;45427;-76
2022/03/17 06:00:27;;;;;;;;;16.50;12.00;;;;;8.99;67.36;102476.84;5070112;28;45292;-75
2022/03/17 06:02:54;;;;;;;;;11.00;9.25;;;;;8.95;67.57;102483.66;5076190;27;45155;-75
2022/03/17 06:05:20;;;;;;;;;9.00;9.00;;;;;8.87;67.44;102475.31;5071034;27;45254;-75
2022/03/17 06:07:50;;;;;;;;;43.00;38.00;;;;;8.85;67.13;102476.97;5079671;27;46216;-75
2022/03/17 06:10:24;;;;;;;;;12.00;11.00;;;;;8.90;67.55;102493.94;5075751;28;45344;-75
2022/03/17 06:12:51;;;;;;;;;11.25;8.00;;;;;8.60;67.15;102452.59;5078283;27;45324;-75
2022/03/17 06:15:17;;;;;;;;;15.25;13.50;;;;;8.86;67.19;102510.41;5069639;28;45153;-75
2022/03/17 06:17:47;;;;;;;;;13.75;11.00;;;;;8.84;67.22;102509.41;5071756;28;45422;-75
2022/03/17 06:20:15;;;;;;;;;12.50;10.25;;;;;8.82;66.92;102521.63;5077509;28;45311;-75
2022/03/17 06:22:43;;;;;;;;;7.75;7.75;;;;;8.80;66.58;102527.63;5077065;28;45462;-73
2022/03/17 06:25:10;;;;;;;;;8.00;8.00;;;;;8.63;66.45;102498.53;5072456;27;45237;-74
2022/03/17 06:27:35;;;;;;;;;5.25;5.25;;;;;8.67;65.98;102518.06;5074119;28;45331;-74
2022/03/17 06:30:04;;;;;;;;;8.25;8.00;;;;;8.64;65.90;102533.69;5073189;27;46363;-74
2022/03/17 06:32:29;;;;;;;;;9.75;8.00;;;;;8.49;65.81;102510.88;5073141;28;45396;-74
2022/03/17 06:34:55;;;;;;;;;16.75;12.75;;;;;8.62;65.58;102548.50;5073918;28;45359;-73
2022/03/17 06:37:20;;;;;;;;;10.00;9.00;;;;;8.60;65.83;102545.78;5073166;28;47598;-75
2022/03/17 06:39:45;;;;;;;;;9.50;7.50;;;;;8.64;66.04;102578.50;5078274;28;45162;-74
2022/03/17 06:42:11;;;;;;;;;8.75;8.00;;;;;8.29;65.44;102517.53;5066792;27;45374;-75
2022/03/17 06:44:36;;;;;;;;;16.25;12.25;;;;;8.40;64.90;102548.91;5074636;28;46141;-75
2022/03/17 06:47:02;;;;;;;;;7.75;3.75;;;;;8.47;65.24;102561.66;5081574;27;45422;-75
2022/03/17 06:49:27;;;;;;;;;6.50;5.50;;;;;8.56;65.33;102566.59;5080630;28;45223;-75
2022/03/17 06:51:53;;;;;;;;;8.00;8.00;;;;;8.57;65.15;102578.94;5068946;27;45212;-75
2022/03/17 06:54:18;;;;;;;;;8.25;7.75;;;;;8.63;65.11;102597.78;5077529;28;45527;-75
2022/03/17 06:56:43;;;;;;;;;16.50;15.00;;;;;8.64;65.11;102604.88;5072213;28;45177;-75
2022/03/17 06:59:09;;;;;;;;;6.50;4.25;;;;;8.36;65.33;102557.44;5075282;28;45462;-74
2022/03/17 07:01:34;;;;;;;;;13.50;10.00;;;;;8.42;65.19;102574.53;5071444;28;45193;-75
2022/03/17 07:03:59;;;;;;;;;14.50;14.50;;;;;8.51;64.79;102580.41;5078742;28;45928;-75
2022/03/17 07:06:24;;;;;;;;;20.00;17.50;;;;;8.70;65.09;102616.69;5079514;28;45154;-75
2022/03/17 07:08:50;;;;;;;;;20.75;16.75;;;;;8.52;64.91;102584.84;5076244;28;45453;-75
2022/03/17 07:11:15;;;;;;;;;133.67;125.33;;;;;8.76;65.24;102617.88;5081652;28;45370;-75
2022/03/17 07:13:41;;;;;;;;;9.00;8.00;;;;;8.55;65.03;102588.50;5078451;28;46354;-75
2022/03/17 07:16:06;;;;;;;;;8.75;8.00;;;;;8.77;65.03;102622.34;5079986;28;45481;-75
2022/03/17 07:18:31;;;;;;;;;20.50;17.50;;;;;8.71;64.71;102621.16;5078038;27;46140;-75
2022/03/17 07:20:59;;;;;;;;;13.25;10.00;;;;;8.37;64.66;102572.41;5081402;27;45385;-76
2022/03/17 07:23:24;;;;;;;;;9.50;9.00;;;;;8.65;64.72;102609.31;5079731;28;45561;-76
2022/03/17 07:25:49;;;;;;;;;10.25;9.75;;;;;8.41;64.52;102571.84;5070080;28;47882;-75
2022/03/17 07:28:16;;;;;;;;;15.00;11.25;;;;;8.66;64.42;102608.50;5080275;27;45358;-76
2022/03/17 07:30:42;;;;;;;;;13.25;9.25;;;;;8.73;65.25;102623.88;5080663;28;45370;-75
2022/03/17 07:33:07;;;;;;;;;11.75;10.00;;;;;8.89;64.76;102650.38;5078839;28;45361;-75
2022/03/17 07:35:33;;;;;;;;;8.75;8.75;;;;;8.98;64.50;102660.56;5080427;28;45387;-74
2022/03/17 07:37:59;;;;;;;;;8.00;8.00;;;;;8.98;64.09;102671.09;5080151;28;45271;-75
2022/03/17 07:40:26;;;;;;;;;23.75;17.50;;;;;9.00;64.46;102661.56;5080729;28;45276;-75
2022/03/17 07:42:51;;;;;;;;;14.25;11.75;;;;;8.58;64.61;102600.13;5079953;28;45471;-75
2022/03/17 07:45:17;;;;;;;;;17.00;15.00;;;;;8.69;64.42;102621.88;5079973;27;45532;-75
2022/03/17 07:47:50;;;;;;;;;9.00;8.25;;;;;8.94;64.12;102656.84;5079405;28;45689;-75
2022/03/17 07:50:16;;;;;;;;;9.75;8.00;;;;;9.04;64.05;102675.84;5094490;27;45399;-75
2022/03/17 07:52:42;;;;;;;;;10.00;7.00;;;;;8.89;64.53;102663.53;5066462;28;46930;-74
2022/03/17 07:55:08;;;;;;;;;9.00;7.75;;;;;9.05;63.79;102685.59;5075859;28;47128;-74
2022/03/17 07:57:37;;;;;;;;;5.50;5.50;;;;;9.09;64.42;102688.50;5065760;28;45325;-75
2022/03/17 08:00:07;;;;;;;;;8.00;8.00;;;;;8.92;63.75;102668.09;5076779;28;45267;-76
2022/03/17 08:02:32;;;;;;;;;9.50;8.75;;;;;8.94;64.20;102663.84;5074481;28;47425;-78
2022/03/17 08:04:59;;;;;;;;;9.00;6.25;;;;;9.03;63.16;102692.50;5068837;28;46289;-76
2022/03/17 08:07:25;;;;;;;;;7.50;7.25;;;;;9.12;63.75;102704.50;5079249;27;45419;-74
2022/03/17 08:09:51;;;;;;;;;12.50;8.75;;;;;9.08;63.79;102691.06;5078873;28;45340;-75
2022/03/17 08:12:16;;;;;;;;;10.75;9.25;;;;;9.18;63.98;102706.59;5080453;28;45343;-75
2022/03/17 08:14:42;;;;;;;;;8.25;8.00;;;;;9.18;63.64;102718.06;5072711;28;46007;-76
2022/03/17 08:17:09;;;;;;;;;9.75;8.00;;;;;9.05;63.74;102688.25;5070211;28;45236;-75
2022/03/17 08:19:35;;;;;;;;;9.50;8.00;;;;;8.96;63.58;102673.66;5073971;28;45477;-76
2022/03/17 08:22:00;;;;;;;;;8.50;7.50;;;;;9.16;63.28;102698.63;5070894;28;45332;-75
2022/03/17 08:24:26;;;;;;;;;11.00;8.00;;;;;9.36;62.99;102735.84;5077719;28;45320;-75
2022/03/17 08:26:53;;;;;;;;;6.25;6.25;;;;;8.95;63.16;102661.28;5070229;28;45299;-74
2022/03/17 08:29:18;;;;;;;;;9.50;7.50;;;;;9.32;63.53;102721.53;5077061;27;45424;-75
2022/03/17 08:31:43;;;;;;;;;10.00;8.00;;;;;9.27;62.22;102716.81;5079100;28;45362;-75
2022/03/17 08:34:09;;;;;;;;;11.50;8.00;;;;;9.45;62.58;102751.34;5079192;27;45397;-75
2022/03/17 08:36:34;;;;;;;;;6.00;4.00;;;;;9.42;61.70;102754.69;5078969;28;45512;-75
2022/03/17 08:39:00;;;;;;;;;5.25;5.00;;;;;8.86;61.41;102665.09;5079695;27;45289;-75
2022/03/17 08:41:25;;;;;;;;;10.50;8.00;;;;;9.45;62.22;102768.06;5072288;27;45386;-74
2022/03/17 08:43:54;;;;;;;;;9.25;7.00;;;;;9.40;61.90;102758.97;5079219;27;45457;-75
2022/03/17 08:49:20;;;;;;;;;5.75;4.00;;;;;9.51;62.52;102768.44;5079232;28;45374;-77
2022/03/17 08:51:46;;;;;;;;;13.25;8.00;;;;;9.60;62.05;102789.19;5076456;27;45280;-75
2022/03/17 08:54:12;;;;;;;;;8.25;7.00;;;;;9.60;61.85;102795.38;5071226;28;46201;-75
2022/03/17 08:56:38;;;;;;;;;9.00;4.50;;;;;9.63;60.84;102797.31;5078440;28;45335;-75
2022/03/17 08:59:04;;;;;;;;;10.50;6.50;;;;;9.67;61.84;102803.69;5075218;28;45318;-74
2022/03/17 09:01:29;;;;;;;;;9.25;8.25;;;;;9.68;60.97;102810.78;5078434;28;46508;-74
2022/03/17 09:03:55;;;;;;;;;9.25;7.75;;;;;9.57;61.29;102779.38;5073745;27;46114;-74
2022/03/17 09:06:22;;;;;;;;;13.00;8.00;;;;;9.51;60.89;102768.44;5075478;28;45338;-75
2022/03/17 09:08:48;;;;;;;;;8.25;7.75;;;;;9.70;60.94;102794.22;5072667;28;45381;-74
2022/03/17 09:11:14;;;;;;;;;8.50;7.75;;;;;9.84;60.07;102817.09;5061602;28;45340;-75
2022/03/17 09:13:40;;;;;;;;;6.50;6.50;;;;;9.91;61.59;102821.00;5074157;28;46004;-75
2022/03/17 09:16:06;;;;;;;;;12.25;9.25;;;;;9.91;59.84;102809.50;5079507;28;45462;-75
2022/03/17 09:18:33;;;;;;;;;5.25;5.25;;;;;9.97;60.30;102810.81;5076601;28;45223;-75
2022/03/17 09:21:01;;;;;;;;;12.75;8.00;;;;;10.05;59.10;102816.53;5068399;28;45735;-75
2022/03/17 09:23:30;;;;;;;;;11.50;9.00;;;;;10.11;59.58;102813.31;5071525;28;47399;-75
2022/03/17 09:25:57;;;;;;;;;9.50;8.00;;;;;10.15;59.66;102820.63;5064668;28;45565;-76
2022/03/17 09:28:22;;;;;;;;;5.00;3.75;;;;;10.17;59.74;102819.00;5071697;28;45635;-75
2022/03/17 09:30:49;;;;;;;;;5.25;4.00;;;;;10.22;59.89;102830.72;5066366;28;45399;-75
2022/03/17 09:33:14;;;;;;;;;11.00;8.00;;;;;10.24;59.78;102844.94;5079499;27;45697;-75
2022/03/17 09:35:40;;;;;;;;;8.75;8.50;;;;;10.13;59.21;102820.53;5072603;28;45162;-74
2022/03/17 09:38:06;;;;;;;;;11.00;9.00;;;;;10.33;58.92;102841.97;5076170;28;45267;-75
2022/03/17 09:40:32;;;;;;;;;14.50;11.00;;;;;10.36;59.42;102845.69;5071884;28;45320;-75
2022/03/17 09:45:42;;;;;;;;;12.75;9.00;;;;;10.25;59.11;102833.53;5073972;28;45482;-75
2022/03/17 09:48:13;;;;;;;;;11.50;9.00;;;;;10.46;58.46;102855.06;5078404;28;45418;-75
2022/03/17 09:50:39;;;;;;;;;10.50;8.00;;;;;10.43;59.57;102850.50;5079045;28;45192;-75
2022/03/17 09:53:06;;;;;;;;;9.50;7.00;;;;;10.43;58.17;102836.41;5078440;27;45459;-75
2022/03/17 09:55:31;;;;;;;;;7.50;7.50;;;;;10.62;58.36;102862.16;5069815;28;45364;-76
2022/03/17 09:57:57;;;;;;;;;9.25;8.25;;;;;10.67;59.00;102852.72;5077136;28;45344;-75
2022/03/17 10:00:23;;;;;;;;;13.75;6.50;;;;;10.81;58.02;102856.16;5069885;28;45271;-75
2022/03/17 10:02:48;;;;;;;;;8.50;6.00;;;;;10.69;58.40;102829.94;5073212;27;46153;-76
2022/03/17 10:05:14;;;;;;;;;6.00;6.00;;;;;10.97;58.22;102867.69;5069401;28;45370;-75
2022/03/17 10:07:39;;;;;;;;;9.00;9.00;;;;;10.83;57.15;102833.34;5078513;27;45675;-75
2022/03/17 10:10:05;;;;;;;;;8.75;8.75;;;;;10.98;57.16;102860.69;5074437;28;45497;-75
2022/03/17 10:12:31;;;;;;;;;6.25;5.00;;;;;10.83;57.55;102818.38;5078184;28;45366;-75
2022/03/17 10:14:58;;;;;;;;;4.75;4.25;;;;;10.62;56.54;102782.81;5069599;28;45373;-76
2022/03/17 10:17:38;;;;;;;;;10.75;7.75;;;;;11.04;54.96;102874.25;5067581;28;45317;-75
2022/03/17 10:20:25;;;;;;;;;11.75;8.25;;;;;11.03;56.80;102868.88;5065987;28;45198;-76
2022/03/17 10:23:02;;;;;;;;;7.75;7.75;;;;;11.01;56.61;102868.78;5070498;28;45538;-75
2022/03/17 10:25:30;;;;;;;;;9.75;7.50;;;;;11.02;56.59;102870.59;5067082;28;45241;-76
2022/03/17 10:27:57;;;;;;;;;8.00;6.50;;;;;10.96;57.05;102849.09;5075579;28;45613;-75
2022/03/17 10:30:41;;;;;;;;;8.25;8.25;;;;;11.25;56.15;102893.06;5070673;28;45387;-75
2022/03/17 10:33:14;;;;;;;;;9.00;7.25;;;;;11.29;56.36;102884.47;5065667;28;46685;-76
2022/03/17 10:35:45;;;;;;;;;6.00;6.00;;;;;11.38;56.35;102881.41;5070870;28;45366;-76
2022/03/17 10:38:17;;;;;;;;;7.75;6.00;;;;;11.48;55.46;102894.31;5077530;28;45370;-75
2022/03/17 10:40:44;;;;;;;;;7.25;6.00;;;;;11.52;55.26;102906.91;5070732;28;47195;-75
2022/03/17 10:43:14;;;;;;;;;9.50;6.25;;;;;11.54;55.43;102910.56;5077892;28;46384;-75
2022/03/17 10:45:39;;;;;;;;;8.75;5.50;;;;;11.45;55.74;102890.59;5072196;28;45358;-75
2022/03/17 10:48:06;;;;;;;;;6.00;6.00;;;;;11.53;56.30;102908.72;5075256;28;44921;-75
2022/03/17 10:50:38;;;;;;;;;10.50;8.25;;;;;11.43;55.72;102901.13;5076892;28;46217;-74
2022/03/17 10:53:04;;;;;;;;;11.50;7.50;;;;;11.41;56.00;102895.72;5077448;27;45435;-75
2022/03/17 10:55:31;;;;;;;;;8.00;7.25;;;;;11.50;54.28;102919.13;5077882;28;45240;-74
2022/03/17 10:58:11;;;;;;;;;7.25;7.00;;;;;11.54;55.54;102917.56;5077742;27;45481;-75
2022/03/17 11:00:49;;;;;;;;;8.25;8.25;;;;;11.68;54.69;102923.59;5068806;28;45563;-74
2022/03/17 11:03:15;;;;;;;;;9.25;6.75;;;;;11.53;53.88;102890.16;5075615;27;46252;-74
2022/03/17 11:05:41;;;;;;;;;5.50;5.50;;;;;11.79;55.61;102920.72;5072062;27;45457;-74
2022/03/17 11:08:09;;;;;;;;;11.00;10.00;;;;;11.55;53.86;102891.16;5073758;27;45383;-74
2022/03/17 11:10:39;;;;;;;;;10.50;7.75;;;;;11.73;54.86;102922.13;5066091;28;45343;-75
2022/03/17 11:13:11;;;;;;;;;6.75;6.00;;;;;11.67;54.92;102925.34;5071789;28;45374;-75
2022/03/17 11:15:43;;;;;;;;;7.00;6.25;;;;;11.77;55.56;102940.03;5066254;28;45311;-76
2022/03/17 11:18:17;;;;;;;;;12.75;12.25;;;;;11.55;54.81;102899.13;5071676;28;45426;-75
2022/03/17 11:20:43;;;;;;;;;12.25;11.00;;;;;11.84;55.77;102943.06;5060736;28;45401;-77
2022/03/17 11:23:18;;;;;;;;;33.25;29.00;;;;;11.87;54.68;102937.03;5075314;28;45647;-76
2022/03/17 11:25:58;;;;;;;;;17.50;16.50;;;;;11.87;55.15;102934.41;5066872;28;45310;-77
2022/03/17 11:28:35;;;;;;;;;15.50;12.00;;;;;11.92;53.97;102942.59;5071366;28;45366;-75
2022/03/17 11:31:04;;;;;;;;;20.25;15.00;;;;;11.91;53.62;102944.34;5068152;28;46022;-76
2022/03/17 11:33:36;;;;;;;;;9.50;8.25;;;;;11.89;53.68;102950.41;5072090;28;46984;-76
2022/03/17 11:36:08;;;;;;;;;15.00;10.50;;;;;11.90;53.22;102954.84;5072964;27;45529;-75